Goodland, KS

5:01 AM MDT on August 29, 2014 (GMT -0600)
Kit Carson County | Change Station
CLOSE
Current Station
Airport
Location: Burlington,
Elevation: 4216 ft
Nearby Weather Stations

Elev 4216 ft 39.24 °N, 102.28 °W | Updated 8 minutes ago

Clear
Clear
53 °F
Feels Like 53 °F
N
8
Wind Variable Wind from West

Today
High -- | Low -- °F
--% Chance of Precip.
Yesterday
High -- | Low -- °F
Precip. -- in
6:12 AM 7:22 PM
Waxing Crescent, 13% visible
Pressure 29.88 in
Visibility 10.0 miles
Clouds Clear
Dew Point 49 °F
Humidity 86%
Rainfall 0.00 in
Snow Depth Not available.
UV 0 out of 12
Pollen 7.30 out of 12
Air Quality Not available.
Flu Activity Not available.
METAR KITR 291053Z AUTO 28007KT 10SM CLR 12/09 A3000 RMK AO2 SLP116 T01170094

More Conditions Fewer Conditions

Pressure 29.88 in
Visibility 10.0 miles
Clouds Clear
Dew Point 49 °F
Humidity 86%
Rainfall 0.00 in
Snow Depth Not available.
UV 0 out of 12
Pollen 7.30 out of 12
Air Quality Not available.
Flu Activity Not available.
METAR KITR 291053Z AUTO 28007KT 10SM CLR 12/09 A3000 RMK AO2 SLP116 T01170094

More Conditions Fewer Conditions

10-Day Weather Forecast

Almanac

Astronomy

Aug. 29, 2014 Rise Set
Actual Time 6:12 AM MDT 7:22 PM MDT
Civil Twilight 5:44 AM MDT 7:49 PM MDT
Nautical Twilight 5:11 AM MDT 8:22 PM MDT
Astronomical Twilight 4:37 AM MDT 8:57 PM MDT
Moon 10:02 AM MDT 9:22 PM MDT
Length of Visible Light 14h 04m
Length of Day
13h 09m
Tomorrow will be 2m 27s shorter.
Waxing Crescent, 13% of the Moon is Illuminated
Today
Waxing Crescent
Sep 2
First Quarter
Sep 8
Full
Sep 15
Last Quarter
Sep 24
New

Today's Extremes

State Highs State Lows

Community

WunderPhotos

Upload Photos

1,748,211 photos uploaded!

Nearby

Snow Depth

Station Depth Elevation
No new snow has been reported.

Earthquake Activity

City Distance Mag. Time & Date
No recent earthquake activity has been reported nearby.
Minimum magnitude displayed is 2.5.

Coastal Water Temperatures

Place Temperature
No Stations Reporting

Nearby Weather Stations